fbpx

Ecología no es esnobismo ni moda, es urgencia en un mundo que estamos destruyendo…

Valores de lluvia y viento 19 de febrero de 2016

Árboles, cables y postes caídos. La tormenta fue fuerte, y al iniciarse lo hizo con cortinas de lluvia, muchas personas reportaron que era la primera vez que en su domicilio las ventanas dejaban pasar agua o tuvieron filtraciones y esto se debió fundamentalmente al fenómeno llamado lluvias de frente, estas se ocasionan cuando un frente frío choca con un frente cálido y húmedo con la particularidad que en esta ocasión fue un tormenta severa, no una reportada como severa sino realmente severa.

En los valores que les comparto se pueden ver los ritmos de precipitación de la jornada y los fuertes vientos generados por el fenómeno.

TimeTemperatureDew PointHumidityWindSpeedGustPressurePrecip. Rate.
4:36 AM25.4 °C23.1 °C87 %SE45.4 kph71 kph1009.7 hPa0.3 mm
4:41 AM25.3 °C23.2 °C88 %SE50 kph71 kph1009.7 hPa0.3 mm
4:46 AM25.3 °C23 °C87 %SE43.9 kph64.8 kph1009.7 hPa0.5 mm
4:51 AM25.1 °C22.8 °C87 %ESE61.1 kph73.4 kph1009.4 hPamm
4:56 AM25.2 °C22.7 °C86 %ESE54.1 kph73.4 kph1009.4 hPa4.6 mm
5:01 AM24.9 °C22.6 °C87 %ESE56.2 kph69.8 kph1009.4 hPa16 mm
5:08 AM25.1 °C22.8 °C87 %ESE46.5 kph79.5 kph1010 hPa58.2 mm
5:14 AM25.1 °C22.8 °C87 %ESE40.4 kph79.5 kph1010 hPa66.8 mm
5:19 AM24.9 °C22.8 °C88 %ESE35.6 kph61.1 kph1010 hPa101.3 mm
5:25 AM24.9 °C23 °C89 %ESE63.7 kph78.5 kph1009.7 hPa176.3 mm
5:30 AM24.9 °C23 °C89 %ESE62.3 kph78.5 kph1009.7 hPa248.7 mm
5:37 AM24.7 °C22.6 °C88 %SE66.3 kph82.1 kph1010 hPa327.7 mm
5:43 AM24.6 °C22.5 °C88 %ESE61.1 kph83.2 kph1010.7 hPa411.5 mm
5:48 AM24.6 °C22.3 °C87 %SE50 kph97.8 kph1012.8 hPa449.1 mm
5:53 AM24.4 °C22.1 °C87 %SSE27 kph97.8 kph1013.8 hPa468.4 mm
5:58 AM24.3 °C21.8 °C86 %SSW17.2 kph71 kph1014.1 hPa463.5 mm
6:04 AM22.8 °C20.9 °C89 %SW50 kph64.8 kph1014.1 hPa459.2 mm
6:09 AM23.2 °C21.8 °C92 %SSE69.8 kph99 kph1012.8 hPa488.2 mm
6:14 AM23.3 °C22.1 °C93 %SE74.5 kph99 kph1013.1 hPa539.7 mm
6:20 AM23.5 °C22.3 °C93 %SE72.4 kph90.7 kph1012.8 hPa561.1 mm
6:26 AM23.1 °C21.9 °C93 %SE52.6 kph86.7 kph1012.8 hPa532.4 mm
6:32 AM23 °C21.8 °C93 %ESE45.4 kph71 kph1012.8 hPa478.3 mm
6:37 AM23 °C22 °C94 %ESE43.9 kph61.1 kph1013.4 hPa439.7 mm
6:43 AM23.3 °C22.3 °C94 %ESE48.9 kph60.2 kph1013.4 hPa410.7 mm
6:49 AM22.8 °C21.6 °C93 %SE72.4 kph77.1 kph1013.1 hPa398.8 mm
7:00 AM21.7 °C20.7 °C94 %ESE57.6 kph79.5 kph1016.1 hPa491.7 mm
7:07 AM21.7 °C20.7 °C94 %East46.5 kph79.5 kph1016.1 hPa473.7 mm
7:12 AM21.8 °C20.8 °C94 %East60.2 kph73.4 kph1015.8 hPa427.7 mm
7:18 AM21.5 °C20.5 °C94 %East62.3 kph79.5 kph1014.8 hPa444 mm
7:25 AM21.7 °C20.7 °C94 %East58.7 kph90.7 kph1014.4 hPa421.1 mm
7:30 AM21.8 °C20.8 °C94 %East41.7 kph80.6 kph1015.1 hPa417.3 mm
7:36 AM21.8 °C20.8 °C94 %East58.7 kph84.6 kph1015.5 hPa403.9 mm
7:42 AM22.3 °C21.1 °C93 %East43.9 kph83.2 kph1014.8 hPa390.7 mm
7:48 AM22.1 °C20.9 °C93 %East54.1 kph72.4 kph1014.1 hPa359.4 mm
7:54 AM22.4 °C21.4 °C94 %East39.3 kph68.4 kph1014.4 hPa306.1 mm
8:00 AM22.3 °C21.3 °C94 %East39.3 kph68.4 kph1014.4 hPa262.1 mm
8:06 AM22.5 °C21.5 °C94 %East37.8 kph68.4 kph1014.8 hPa240 mm
8:12 AM23 °C22.2 °C95 %East46.5 kph61.1 kph1015.1 hPa210.6 mm
8:18 AM23.1 °C22.3 °C95 %East45.4 kph61.1 kph1015.5 hPa160.8 mm
8:23 AM23 °C22 °C94 %East36.7 kph61.1 kph1016.1 hPa135.4 mm
8:28 AM23 °C22 °C94 %East31.7 kph57.6 kph1016.5 hPa112.8 mm
8:33 AM23 °C22.2 °C95 %ESE168.9 kph173.8 kph1016.5 hPa88.1 mm
8:39 AM23 °C22 °C94 %ESE31.7 kph173.8 kph1017.2 hPa58.7 mm
8:44 AM23 °C22 °C94 %ESE28 kph41.7 kph1017.5 hPa46 mm
8:51 AM22.9 °C21.7 °C93 %ESE19.5 kph40.4 kph1018.2 hPa42.7 mm
8:56 AM22.7 °C21.6 °C93 %ESE27 kph40.4 kph1018.2 hPa38.6 mm
9:03 AM22.6 °C21.4 °C93 %ESE30.6 kph41.7 kph1018.2 hPa25.4 mm
9:09 AM22.8 °C21.6 °C93 %ESE28 kph41.7 kph1018.5 hPa15 mm
9:15 AM22.9 °C21.7 °C93 %ESE29.4 kph37.8 kph1018.5 hPa15 mm
9:20 AM23 °C22 °C94 %East29.4 kph36.7 kph1018.5 hPa8.4 mm
9:25 AM23 °C22 °C94 %East29.4 kph34.3 kph1018.8 hPa8.1 mm
9:30 AM23.1 °C22.3 °C95 %East15.8 kph33.1 kph1019.2 hPa6.9 mm
9:36 AM23 °C22.2 °C95 %East23.3 kph33.1 kph1019.5 hPa6.9 mm
9:42 AM23.1 °C22.3 °C95 %East27 kph33.1 kph1019.9 hPa5.1 mm
9:48 AM22.9 °C21.9 °C94 %East25.6 kph34.3 kph1019.5 hPa4.6 mm
9:54 AM22.7 °C21.7 °C94 %East24.5 kph34.3 kph1019.5 hPa4.6 mm
10:00 AM22.7 °C21.7 °C94 %East27 kph35.6 kph1019.5 hPa3.8 mm
10:05 AM22.7 °C21.7 °C94 %East29.4 kph39.3 kph1019.5 hPa2.3 mm
10:10 AM22.9 °C21.9 °C94 %East31.7 kph41.7 kph1019.5 hPamm
10:17 AM22.6 °C21.6 °C94 %East35.6 kph45.4 kph1019.5 hPamm
10:23 AM22.5 °C21.3 °C93 %East37.8 kph48.9 kph1018.8 hPa4.8 mm
10:28 AM22.6 °C21.4 °C93 %East40.4 kph50 kph1018.8 hPa5.3 mm
10:33 AM22.5 °C21.3 °C93 %East55 kph64.8 kph1018.2 hPa8.4 mm
10:39 AM22.4 °C21.2 °C93 %East51.5 kph66.3 kph1017.5 hPa16.5 mm
10:45 AM22.3 °C21.1 °C93 %East64.8 kph75.9 kph1016.8 hPa37.1 mm
10:51 AM22.3 °C21.1 °C93 %East58.7 kph78.5 kph1016.5 hPa46.2 mm
10:56 AM22.3 °C20.9 °C92 %East68.4 kph85.6 kph1015.8 hPa62 mm
11:02 AM22.3 °C20.9 °C92 %East73.4 kph94.3 kph1014.1 hPa83.1 mm
11:07 AM22.3 °C20.8 °C91 %East82.1 kph109.1 kph1013.8 hPa96.3 mm
11:12 AM22.4 °C20.9 °C91 %ENE74.5 kph109.1 kph1013.4 hPa112 mm
11:18 AM22.8 °C21.1 °C90 %ENE68.4 kph97.8 kph1013.8 hPa127.5 mm
11:23 AM23 °C21.7 °C92 %ENE67.3 kph91.7 kph1013.8 hPa127.8 mm
11:29 AM23.3 °C21.6 °C90 %NE74.5 kph96.9 kph1013.8 hPa131.1 mm
11:39 AM23.5 °C21.4 °C88 %ENE74.5 kph94.3 kph1013.1 hPa129 mm
11:45 AM23.5 °C21.2 °C87 %ENE75.9 kph94.3 kph1012.8 hPa116.1 mm
11:51 AM23.7 °C21.2 °C86 %East66.3 kph88.2 kph1014.4 hPa111.5 mm
11:57 AM23.7 °C21.2 °C86 %East66.3 kph88.2 kph1015.1 hPa96 mm
12:03 PM23.9 °C21.1 °C84 %ENE50 kph80.6 kph1015.1 hPa76.7 mm
12:09 PM24.1 °C21.1 °C83 %ENE52.6 kph71 kph1014.8 hPa64.3 mm
12:15 PM24 °C20.3 °C80 %East69.8 kph80.6 kph1015.1 hPa40.4 mm
12:21 PM24 °C20.6 °C81 %East54.1 kph80.6 kph1014.8 hPa32.5 mm
12:26 PM24 °C20.6 °C81 %East50 kph80.6 kph1014.8 hPa30 mm
12:31 PM24.1 °C20.4 °C80 %East48.9 kph64.8 kph1014.8 hPa22.9 mm
12:38 PM24.3 °C20.7 °C80 %East39.3 kph64.8 kph1014.8 hPa17 mm
12:43 PM24.3 °C20.8 °C81 %ENE42.8 kph60.2 kph1014.8 hPa13.7 mm
12:49 PM24.2 °C20.2 °C78 %East54.1 kph69.8 kph1014.8 hPa4.6 mm
12:54 PM24.4 °C20.7 °C80 %East37.8 kph69.8 kph1014.8 hPa4.6 mm
1:04 PM24.4 °C20.3 °C78 %NE50 kph63.7 kph1014.4 hPa2.8 mm
1:09 PM24.5 °C20.4 °C78 %ENE52.6 kph63.7 kph1014.8 hPa2.8 mm
1:14 PM24.5 °C20.4 °C78 %ENE48.9 kph66.3 kph1014.8 hPa0.5 mm
1:19 PM24.6 °C20.1 °C76 %ENE42.8 kph66.3 kph1014.8 hPa0.3 mm
1:26 PM24.7 °C20 °C75 %NE39.3 kph54.1 kph1014.8 hPa0.3 mm

A las 8:23 hs. El viento alcanzó los 173.8 km/h en Barrio Sarmiento de la ciudad de Rosario y la ráfaga más fuerte fue en ese mismo horaraio de 173.8 km/h. desde el sector este, sudeste. No es necesario explicar porque cayeron árboles, volaron techos y los daños que sufrimos en la ciudad…

Otro dato impresionante se dio a las 6:09 hs. fue el récord de tasa de lluvia por hora, en ese momento precipitaron 488.2 mm/h. de suerte que no se mantuvo ese ritmo sino estaríamos aún bajo agua en la ciudad.

En toda la región ha causado daños de consideración, anegamientos, voladuras de techos, y para quien no haya estado, o no haya observado la forma en que la lluvia “caía” se los puedo describir de la siguiente manera.

Todos hemos visto imágenes de huracanes, videos de huracanes, las lluvia no cae de forma vertical, sino que el agua se ve arrastrada por el intenso viento. Fue llamativo este día 19 como el agua se movía prácticamente de manera horizontal, como si las nubes se desplazaran a gran velocidad arrastrándose por el suelo y dejando el agua que contenían.

Los rosarinos debemos sentirnos agradecidos que el meteoro en nuestra ciudad siendo muy intenso no fue tan dañino como si lo fue en Santa Fe, Paraná y otras localidades donde llegó a derrumbar paredes y volar amplias cabreadas de hierro y techos de chapa.

Los árboles en algunos lugares fueron arrancados de raíz, por eso muchas personas hablaban de colas de tornado. Sin embargo tal fenómeno no existe, lo que suelen llamar cola de tornado son estas tormentas muy severas con ráfagas que en la ciudad de Rosario alcanzaron los 83 km/h y con precipitaciones que en algunos sectores alcanzó los 97 mm todo en menos de 12 horas…

Hemos tenido que lamentar 2 fallecidos en la ciudad de Santa Fe atrapados por un derrumbe…

Hoy siguen muchas localidades con anegamientos y problemas por mamposterías, árboles y servicios caídos y agua en calles y viviendas.

Es mañana del 19 salí a la panadería cuando ya había parado la lluvia, el panorama era malo… pero hubo algo que me conmovió y me dejó pensando… el viento fue tan intenso que en las veredas había gorriones muertos, otros estaban vivos pero refugiados debajo del pequeño techo que hacía el dintel de una casa… Todos mojados, toda una familia de gorriones… algunos muertos otros sobrevivientes muy asustados, mojados y esperando en tierra que el viento fuese menos intenso.

La naturaleza nos viene cobrando muy caro la codicia sojera de la región, que no sólo es Argentina sino que también es sur de Brasil, con un bioma de pino paraná y de bosques de palmas desaparecidos y devenidos en pastizales para ganado y sembradíos de soja transgénica.

No dejaremos de repetir una verdad que todo técnico conoce y que todo político y todo hombre de negocios agropecuarios vienen negando o ignorando simplemente. EL MAPA DE LAS INUNDACIONES Y TORMENTAS SEVERAS EN ARGENTINA, PARAGUAY, Y BRASIL COINCIDE CON EL MAPA DE LOS BIOMAS DEVASTADOS PARA LA SIEMBRA DE SOJA.

Seguimos negando a la naturaleza, suponemos que ella es como los otros seres humanos a los cuales como sociedad ignoramos y confinamos en villas en las grandes ciudades para que unos pocos hagan de los bosques que estas personas habitaban en armonía campos de soja o pastizales para ganado…

A la naturaleza no le importa lo que neguemos o ignoremos, tratará de hallar un equilibrio y si desaparecen los bosques que es el equilibrio natural más armonioso y suave con el que la naturaleza modera el exceso de calor en la tierra… esta tiene otro sistema un poco más violento que son las tormentas…

Una tormenta es el aire acondicionado de la naturaleza… Pero no nos confundamos hay aires acondicionados mucho más eficientes en el sentido que en vez de provocar destrucción provocan multiplicación de la vida, y estos sistemas son muy antiguos y poderosos… se llaman bosques…

Un árbol representa para la atmósfera un enfriamiento de aire que sólo podría ser suplido por el funcionamiento de 21 aparatos de aire acondicionado si fuese posible con estos expulsar el calor fuera de la atmósfera y dejar el frío que generan adentro claro…

Un árbol, un solo árbol representa la vida para por lo menos unas 200 especies de seres vivos, sean estos animales, hongos o insectos…

Deforestamos pensando que eso nos dará dinero… de hecho le da mucho dinero a unos pocos… pero produce pérdidas irreparables a millones de personas y no solamente eso.. Además… produce pérdidas irreparables de hábitats y de especies vivientes que hacen a la fertilidad de la tierra, la pureza del agua y la calidad del aire…

Somos suicidas… tremendos suicidas que nos estamos llevando con nosotros a todos los demás seres vivientes.

La NASA informe oficial, asegura que en los últimos 40 años, con la tala indiscriminada y la contaminación y el incremento consiguiente de temperatura global, hemos perdido el 10 % de la termósfera.

Yo no sé si soy suficientemente didáctico para alarmarte a vos lector ocasional de una web de poca monta de Rosario… pero ojalá lo esté logrando… porque si no te alarmás… si no empezás ahora mismo a hablar con tu gente de esto… nunca tendremos la oportunidad de forzar a los políticos del mundo a tomar medidas drásticas… y si eso no pasa… la Tierra será como Marte debido a la mala acción de la humanidad… que es lo que está vaticinando el informe de la NASA.

Estas tormentas como la del 19 seguirán y se pondrán cada vez peores…

Está en nosotros empezar a hacer algo… en muchos lugares del mundo la gente se está organizando, reclamando a sus gobiernos, plantando árboles donde fueron arrasados… concientizando… a eso te invito… si te importa la vida de tus hijos, de tus nietos… está es la causa más urgente… lo demás puede esperar…

Compartí ahora!